createdAt,value
2018-05-31T00:00:52.584Z,19.10
2018-05-31T00:03:18.984Z,19.00
2018-05-31T00:05:45.440Z,19.20
2018-05-31T00:08:11.845Z,19.40
2018-05-31T00:10:38.260Z,19.50
2018-05-31T00:13:04.648Z,19.50
2018-05-31T00:15:31.080Z,19.40
2018-05-31T00:17:57.471Z,19.30
2018-05-31T00:20:23.897Z,19.20
2018-05-31T00:22:50.345Z,19.10
2018-05-31T00:25:16.769Z,19.00
2018-05-31T00:27:43.993Z,18.90
2018-05-31T00:30:11.125Z,18.90
2018-05-31T00:32:38.316Z,18.80
2018-05-31T00:35:04.725Z,18.70
2018-05-31T00:37:31.110Z,18.70
2018-05-31T00:39:57.544Z,18.60
2018-05-31T00:42:23.936Z,18.60
2018-05-31T00:44:51.091Z,18.40
2018-05-31T00:47:17.520Z,18.40
2018-05-31T00:49:44.678Z,18.20
2018-05-31T00:52:11.856Z,18.20
2018-05-31T00:54:38.304Z,18.10
2018-05-31T00:57:04.782Z,18.10
2018-05-31T00:59:31.236Z,18.00
2018-05-31T01:01:57.648Z,18.00
2018-05-31T01:04:24.068Z,18.00
2018-05-31T01:06:50.455Z,17.90
2018-05-31T01:09:16.871Z,17.80
2018-05-31T01:11:43.300Z,17.80
2018-05-31T01:14:09.723Z,17.70
2018-05-31T01:16:36.909Z,17.60
2018-05-31T01:19:03.288Z,17.50
2018-05-31T01:21:29.711Z,17.50
2018-05-31T01:23:56.141Z,17.40
2018-05-31T01:26:22.515Z,17.40
2018-05-31T01:28:49.682Z,17.40
2018-05-31T01:31:16.086Z,17.30
2018-05-31T01:33:42.507Z,17.40
2018-05-31T01:36:08.892Z,17.30
2018-05-31T01:38:35.286Z,17.30
2018-05-31T01:41:01.740Z,17.20
2018-05-31T01:43:28.912Z,17.20
2018-05-31T01:45:55.305Z,17.10
2018-05-31T01:48:21.732Z,17.20
2018-05-31T01:50:48.172Z,17.10
2018-05-31T01:53:15.341Z,17.00
2018-05-31T01:55:42.505Z,16.80
2018-05-31T01:58:09.636Z,16.80
2018-05-31T02:00:36.831Z,16.70
2018-05-31T02:03:04.029Z,16.70
2018-05-31T02:05:30.483Z,16.60
2018-05-31T02:07:56.892Z,16.60
2018-05-31T02:10:23.280Z,16.60
2018-05-31T02:12:50.470Z,16.50
2018-05-31T02:15:16.881Z,16.50
2018-05-31T02:17:43.296Z,16.50
2018-05-31T02:20:10.448Z,16.40
2018-05-31T02:22:37.584Z,16.30
2018-05-31T02:25:04.088Z,16.20
2018-05-31T02:27:30.485Z,16.20
2018-05-31T02:29:56.884Z,16.20
2018-05-31T02:32:23.284Z,16.20
2018-05-31T02:34:49.701Z,16.20
2018-05-31T02:37:16.140Z,16.10
2018-05-31T02:39:42.533Z,16.10
2018-05-31T02:42:08.970Z,16.10
2018-05-31T02:44:36.125Z,16.10
2018-05-31T02:47:03.282Z,16.10
2018-05-31T02:49:29.693Z,16.10
2018-05-31T02:51:56.849Z,16.10
2018-05-31T02:54:23.989Z,16.10
2018-05-31T02:56:50.449Z,16.00
2018-05-31T02:59:16.880Z,16.00
2018-05-31T03:01:44.021Z,15.90
2018-05-31T03:04:11.228Z,15.90
2018-05-31T03:06:37.676Z,15.90
2018-05-31T03:09:05.149Z,16.00
2018-05-31T03:11:31.592Z,16.00
2018-05-31T03:13:57.986Z,15.90
2018-05-31T03:16:24.438Z,15.90
2018-05-31T03:18:50.848Z,15.90
2018-05-31T03:21:17.262Z,15.90
2018-05-31T03:23:43.685Z,15.90
2018-05-31T03:26:10.831Z,15.80
2018-05-31T03:28:37.987Z,15.80
2018-05-31T03:31:05.112Z,15.90
2018-05-31T03:33:31.532Z,15.80
2018-05-31T03:35:57.939Z,15.80
2018-05-31T03:38:24.338Z,15.80
2018-05-31T03:40:51.510Z,15.80
2018-05-31T03:43:17.917Z,15.70
2018-05-31T03:45:45.079Z,15.80
2018-05-31T03:48:12.248Z,15.80
2018-05-31T03:50:38.652Z,15.70
2018-05-31T03:53:05.071Z,15.80
2018-05-31T03:55:31.473Z,15.80
2018-05-31T03:57:57.889Z,15.80
2018-05-31T04:00:24.312Z,15.80
2018-05-31T04:02:50.692Z,15.90
2018-05-31T04:05:17.116Z,15.90
2018-05-31T04:07:43.505Z,16.00
2018-05-31T04:10:10.720Z,16.30
2018-05-31T04:12:37.209Z,16.20
2018-05-31T04:15:03.625Z,16.60
2018-05-31T04:17:30.788Z,17.50
2018-05-31T04:19:57.195Z,17.40
2018-05-31T04:22:23.607Z,17.90
2018-05-31T04:24:50.009Z,18.30
2018-05-31T04:27:16.412Z,18.80
2018-05-31T04:29:43.552Z,19.50
2018-05-31T04:32:10.717Z,19.70
2018-05-31T04:34:37.879Z,19.70
2018-05-31T04:37:05.027Z,20.10
2018-05-31T04:39:32.204Z,20.80
2018-05-31T04:41:58.592Z,20.70
2018-05-31T04:44:25.752Z,21.40
2018-05-31T04:46:52.892Z,21.20
2018-05-31T04:49:19.287Z,21.20
2018-05-31T04:51:45.793Z,21.60
2018-05-31T04:54:12.175Z,21.50
2018-05-31T04:56:38.620Z,21.60
2018-05-31T04:59:05.025Z,22.00
2018-05-31T05:01:31.440Z,22.70
2018-05-31T05:03:57.829Z,23.30
2018-05-31T05:06:24.245Z,23.70
2018-05-31T05:08:50.675Z,23.60
2018-05-31T05:11:17.052Z,23.10
2018-05-31T05:13:44.261Z,23.40
2018-05-31T05:16:10.714Z,23.30
2018-05-31T05:18:37.132Z,23.40
2018-05-31T05:21:03.561Z,23.20
2018-05-31T05:23:29.958Z,23.80
2018-05-31T05:25:56.365Z,24.30
2018-05-31T05:28:22.754Z,24.10
2018-05-31T05:30:49.206Z,24.10
2018-05-31T05:33:15.640Z,24.90
2018-05-31T05:35:42.004Z,25.00
2018-05-31T05:38:08.404Z,25.00
2018-05-31T05:40:34.860Z,25.20
2018-05-31T05:43:01.285Z,25.30
2018-05-31T05:45:27.740Z,25.30
2018-05-31T05:47:54.136Z,24.90
2018-05-31T05:50:20.575Z,25.30
2018-05-31T05:52:46.971Z,25.00
2018-05-31T05:55:14.104Z,24.80
2018-05-31T05:57:41.256Z,24.60
2018-05-31T06:00:08.399Z,24.30
2018-05-31T06:02:35.587Z,23.50
2018-05-31T06:05:02.038Z,23.50
2018-05-31T06:07:28.444Z,23.00
2018-05-31T06:09:54.959Z,22.50
2018-05-31T06:12:21.343Z,22.20
2018-05-31T06:14:47.793Z,22.00
2018-05-31T06:17:14.231Z,21.80
2018-05-31T06:19:40.675Z,21.60
2018-05-31T06:22:07.101Z,21.60
2018-05-31T06:24:33.558Z,21.70
2018-05-31T06:26:59.943Z,21.50
2018-05-31T06:29:26.339Z,21.50
2018-05-31T06:31:53.511Z,21.80
2018-05-31T06:34:20.653Z,22.00
2018-05-31T06:36:47.836Z,21.90
2018-05-31T06:39:14.283Z,21.90
2018-05-31T06:41:40.685Z,22.00
2018-05-31T06:44:07.839Z,22.00
2018-05-31T06:46:34.956Z,22.40
2018-05-31T06:49:01.364Z,22.30
2018-05-31T06:51:27.806Z,22.20
2018-05-31T06:53:54.200Z,22.20
2018-05-31T06:56:20.610Z,22.10
2018-05-31T06:58:46.999Z,22.00
2018-05-31T07:01:14.661Z,22.10
2018-05-31T07:03:41.307Z,22.10
2018-05-31T07:06:08.493Z,22.20
2018-05-31T07:08:34.920Z,22.10
2018-05-31T07:11:01.310Z,22.00
2018-05-31T07:13:27.701Z,22.30
2018-05-31T07:15:54.160Z,22.40
2018-05-31T07:18:21.259Z,22.30
2018-05-31T07:20:47.759Z,22.30
2018-05-31T07:23:14.158Z,22.20
2018-05-31T07:25:40.536Z,22.60
2018-05-31T07:28:06.958Z,22.60
2018-05-31T07:30:33.353Z,22.70
2018-05-31T07:32:59.759Z,22.70
2018-05-31T07:35:26.170Z,22.80
2018-05-31T07:37:53.626Z,23.00
2018-05-31T07:40:20.099Z,23.00
2018-05-31T07:42:46.497Z,23.00
2018-05-31T07:45:12.964Z,23.10
2018-05-31T07:47:39.394Z,23.20
2018-05-31T07:50:05.787Z,23.20
2018-05-31T07:52:32.256Z,23.30
2018-05-31T07:54:58.668Z,23.10
2018-05-31T07:57:25.111Z,23.10
2018-05-31T07:59:51.483Z,23.10
2018-05-31T08:02:17.929Z,23.30
2018-05-31T08:04:44.304Z,23.50
2018-05-31T08:07:10.701Z,23.70
2018-05-31T08:09:37.501Z,23.70
2018-05-31T08:12:03.948Z,24.10
2018-05-31T08:14:30.356Z,24.00
2018-05-31T08:16:56.770Z,24.10
2018-05-31T08:19:23.905Z,24.10
2018-05-31T08:21:51.036Z,24.10
2018-05-31T08:24:17.445Z,24.10
2018-05-31T08:26:43.814Z,24.20
2018-05-31T08:29:16.200Z,24.30
2018-05-31T08:31:44.483Z,24.40
2018-05-31T08:37:40.507Z,24.30
2018-05-31T08:40:06.987Z,24.60
2018-05-31T08:42:33.377Z,24.80
2018-05-31T08:44:59.781Z,24.60
2018-05-31T08:47:26.148Z,24.80
2018-05-31T08:49:52.561Z,25.10
2018-05-31T08:52:18.944Z,25.00
2018-05-31T08:54:46.107Z,24.70
2018-05-31T08:57:12.509Z,24.70
2018-05-31T08:59:38.879Z,25.00
2018-05-31T09:02:05.294Z,25.00
2018-05-31T09:04:32.427Z,25.30
2018-05-31T09:06:58.837Z,25.30
2018-05-31T09:09:25.236Z,25.30
2018-05-31T09:11:51.632Z,25.30
2018-05-31T09:14:18.054Z,25.30
2018-05-31T09:16:44.506Z,25.40
2018-05-31T09:19:11.631Z,25.50
2018-05-31T09:21:38.036Z,25.40
2018-05-31T09:24:04.425Z,25.50
2018-05-31T09:26:31.603Z,25.90
2018-05-31T09:28:57.998Z,25.90
2018-05-31T09:31:24.392Z,25.90
2018-05-31T09:33:50.794Z,26.10
2018-05-31T09:36:17.929Z,25.90
2018-05-31T09:38:45.099Z,26.10
2018-05-31T09:41:12.069Z,26.10
2018-05-31T09:43:38.312Z,26.10
2018-05-31T09:46:04.518Z,26.10
2018-05-31T09:48:30.752Z,26.10
2018-05-31T09:50:57.035Z,26.20
2018-05-31T09:53:23.306Z,26.20
2018-05-31T09:55:49.507Z,26.60
2018-05-31T09:58:15.770Z,26.20
2018-05-31T10:00:41.971Z,26.40
2018-05-31T10:03:08.209Z,26.50
2018-05-31T10:05:35.147Z,26.40
2018-05-31T10:08:01.390Z,26.40
2018-05-31T10:10:28.358Z,25.90
2018-05-31T10:12:54.593Z,25.80
2018-05-31T10:15:20.855Z,26.10
2018-05-31T10:17:47.083Z,26.40
2018-05-31T10:20:13.312Z,26.60
2018-05-31T10:22:39.701Z,26.60
2018-05-31T10:25:06.110Z,26.70
2018-05-31T10:27:32.480Z,26.80
2018-05-31T10:29:58.915Z,26.80
2018-05-31T10:32:25.325Z,27.00
2018-05-31T10:34:52.677Z,27.10
2018-05-31T10:37:19.803Z,27.00
2018-05-31T10:39:46.980Z,27.20
2018-05-31T10:42:14.112Z,27.10
2018-05-31T10:44:40.564Z,27.00
2018-05-31T10:47:07.685Z,27.10
2018-05-31T10:49:34.113Z,27.00
2018-05-31T10:52:00.496Z,27.30
2018-05-31T10:54:27.652Z,27.50
2018-05-31T10:56:54.788Z,27.30
2018-05-31T10:59:21.997Z,27.30
2018-05-31T11:01:49.108Z,27.40
2018-05-31T11:04:15.552Z,27.30
2018-05-31T11:06:41.937Z,27.40
2018-05-31T11:09:08.381Z,27.60
2018-05-31T11:11:34.773Z,27.70
2018-05-31T11:14:01.149Z,27.60
2018-05-31T11:16:27.575Z,27.90
2018-05-31T11:18:53.961Z,28.00
2018-05-31T11:21:20.383Z,28.20
2018-05-31T11:23:46.837Z,28.40
2018-05-31T11:26:15.135Z,28.20
2018-05-31T11:28:41.602Z,28.10
2018-05-31T11:31:08.001Z,28.10
2018-05-31T11:33:34.444Z,28.10
2018-05-31T11:36:01.788Z,28.30
2018-05-31T11:38:29.009Z,28.60
2018-05-31T11:40:56.194Z,28.60
2018-05-31T11:43:23.222Z,28.80
2018-05-31T11:45:49.646Z,29.00
2018-05-31T11:48:17.947Z,28.90
2018-05-31T11:50:44.404Z,28.10
2018-05-31T11:53:10.805Z,28.10
2018-05-31T11:55:37.207Z,28.20
2018-05-31T11:58:04.366Z,28.70
2018-05-31T12:00:31.608Z,28.90
2018-05-31T12:02:57.976Z,28.90
2018-05-31T12:05:25.837Z,28.90
2018-05-31T12:07:52.353Z,28.80
2018-05-31T12:10:19.501Z,28.50
2018-05-31T12:12:46.684Z,28.50
2018-05-31T12:15:13.130Z,28.40
2018-05-31T12:17:39.681Z,28.30
2018-05-31T12:20:06.797Z,28.70
2018-05-31T12:22:33.928Z,28.90
2018-05-31T12:25:01.257Z,28.60
2018-05-31T12:27:27.707Z,28.50
2018-05-31T12:29:54.087Z,28.60
2018-05-31T12:32:20.488Z,28.80
2018-05-31T12:34:47.616Z,28.70
2018-05-31T12:37:14.245Z,28.70
2018-05-31T12:39:40.707Z,28.90
2018-05-31T12:42:07.102Z,29.10
2018-05-31T12:44:33.495Z,28.90
2018-05-31T12:47:00.629Z,28.60
2018-05-31T12:49:26.994Z,28.60
2018-05-31T12:51:53.443Z,28.80
2018-05-31T12:54:19.823Z,28.90
2018-05-31T12:56:46.277Z,28.80
2018-05-31T12:59:15.522Z,28.40
2018-05-31T13:01:45.482Z,28.70
2018-05-31T13:04:14.989Z,28.60
2018-05-31T13:06:43.648Z,28.70
2018-05-31T13:09:15.509Z,28.90
2018-05-31T13:11:44.237Z,28.80
2018-05-31T13:14:11.364Z,29.30
2018-05-31T13:16:38.583Z,29.60
2018-05-31T13:19:05.027Z,29.50
2018-05-31T13:21:33.797Z,29.50
2018-05-31T13:24:00.761Z,29.40
2018-05-31T13:26:27.205Z,29.20
2018-05-31T13:28:53.633Z,29.10
2018-05-31T13:31:20.004Z,29.10
2018-05-31T13:33:46.391Z,29.50
2018-05-31T13:36:12.769Z,29.60
2018-05-31T13:38:39.248Z,29.90
2018-05-31T13:41:07.128Z,30.10
2018-05-31T13:43:34.711Z,29.70
2018-05-31T13:46:01.193Z,29.70
2018-05-31T13:48:28.362Z,29.30
2018-05-31T13:50:54.732Z,29.20
2018-05-31T13:53:22.481Z,29.70
2018-05-31T13:55:50.194Z,29.80
2018-05-31T13:58:17.380Z,30.10
2018-05-31T14:00:44.492Z,30.10
2018-05-31T14:03:10.871Z,30.20
2018-05-31T14:05:37.269Z,29.80
2018-05-31T14:08:04.388Z,30.20
2018-05-31T14:10:30.836Z,30.10
2018-05-31T14:12:57.234Z,30.30
2018-05-31T14:15:23.675Z,30.10
2018-05-31T14:17:50.056Z,29.70
2018-05-31T14:20:17.197Z,29.50
2018-05-31T14:22:43.583Z,29.40
2018-05-31T14:25:09.999Z,29.70
2018-05-31T14:27:36.403Z,29.80
2018-05-31T14:30:02.834Z,29.70
2018-05-31T14:32:29.236Z,30.10
2018-05-31T14:34:55.604Z,29.60
2018-05-31T14:37:21.992Z,29.80
2018-05-31T14:39:48.357Z,29.50
2018-05-31T14:42:14.752Z,29.10
2018-05-31T14:44:41.131Z,29.30
2018-05-31T14:47:07.541Z,29.70
2018-05-31T14:49:34.578Z,30.10
2018-05-31T14:52:00.960Z,30.30
2018-05-31T14:54:28.110Z,31.00
2018-05-31T14:56:58.383Z,30.80
2018-05-31T14:59:28.090Z,30.80
2018-05-31T15:01:58.704Z,30.90
2018-05-31T15:04:29.936Z,31.00
2018-05-31T15:06:59.749Z,30.90
2018-05-31T15:09:29.327Z,30.80
2018-05-31T15:11:59.868Z,30.60
2018-05-31T15:14:30.203Z,30.50
2018-05-31T15:17:00.885Z,30.30
2018-05-31T15:19:29.433Z,30.70
2018-05-31T15:22:00.400Z,30.90
2018-05-31T15:24:28.944Z,30.90
2018-05-31T15:26:58.055Z,32.40
2018-05-31T15:29:27.267Z,32.50
2018-05-31T15:31:57.843Z,32.40
2018-05-31T15:34:25.089Z,31.60
2018-05-31T15:36:56.131Z,31.60
2018-05-31T15:39:24.117Z,31.10
2018-05-31T15:41:53.049Z,30.50
2018-05-31T15:44:20.905Z,29.20
2018-05-31T15:46:51.766Z,25.10
2018-05-31T15:49:18.229Z,25.00
2018-05-31T15:51:47.137Z,24.20
2018-05-31T15:54:16.144Z,23.70
2018-05-31T15:56:44.878Z,22.90
2018-05-31T15:59:12.217Z,21.80
2018-05-31T16:01:41.572Z,21.70
2018-05-31T16:04:08.117Z,21.50
2018-05-31T16:06:37.965Z,21.10
2018-05-31T16:09:04.635Z,20.60
2018-05-31T16:11:31.885Z,19.70
2018-05-31T16:13:59.060Z,19.60
2018-05-31T16:16:27.134Z,19.50
2018-05-31T16:18:54.447Z,19.60
2018-05-31T16:21:22.271Z,19.30
2018-05-31T16:23:50.322Z,18.90
2018-05-31T16:26:17.048Z,18.70
2018-05-31T16:28:44.210Z,18.90
2018-05-31T16:31:13.107Z,18.80
2018-05-31T16:33:42.011Z,19.30
2018-05-31T16:36:12.718Z,19.70
2018-05-31T16:38:41.830Z,19.60
2018-05-31T16:41:08.813Z,19.70
2018-05-31T16:43:35.190Z,19.70
2018-05-31T16:46:02.376Z,19.70
2018-05-31T16:48:28.760Z,19.60
2018-05-31T16:50:56.963Z,19.70
2018-05-31T16:53:25.030Z,19.30
2018-05-31T16:55:52.224Z,19.30
2018-05-31T16:58:19.223Z,19.20
2018-05-31T17:00:46.629Z,18.50
2018-05-31T17:03:13.761Z,18.40
2018-05-31T17:05:41.136Z,18.10
2018-05-31T17:08:07.591Z,18.00
2018-05-31T17:10:34.853Z,17.70
2018-05-31T17:13:01.501Z,17.40
2018-05-31T17:15:32.609Z,16.90
2018-05-31T17:18:04.441Z,16.80
2018-05-31T17:20:33.177Z,16.80
2018-05-31T17:23:00.525Z,16.90
2018-05-31T17:25:26.963Z,17.30
2018-05-31T17:27:53.372Z,17.10
2018-05-31T17:30:20.081Z,16.80
2018-05-31T17:32:46.499Z,16.60
2018-05-31T17:35:13.530Z,16.20
2018-05-31T17:37:40.390Z,16.10
2018-05-31T17:40:07.306Z,16.10
2018-05-31T17:42:34.005Z,16.10
2018-05-31T17:45:00.731Z,16.10
2018-05-31T17:47:27.742Z,16.20
2018-05-31T17:49:54.177Z,16.30
2018-05-31T17:52:22.117Z,16.50
2018-05-31T17:54:48.572Z,16.70
2018-05-31T17:57:17.524Z,16.80
2018-05-31T17:59:46.690Z,16.90
2018-05-31T18:02:13.177Z,17.00
2018-05-31T18:04:42.814Z,17.10
2018-05-31T18:07:13.272Z,17.10
2018-05-31T18:09:40.542Z,17.20
2018-05-31T18:12:07.651Z,17.10
2018-05-31T18:14:38.115Z,17.00
2018-05-31T18:17:06.752Z,17.00
2018-05-31T18:19:33.264Z,16.90
2018-05-31T18:22:03.401Z,16.80
2018-05-31T18:24:34.215Z,16.80
2018-05-31T18:27:05.606Z,16.90
2018-05-31T18:29:32.042Z,16.90
2018-05-31T18:32:02.003Z,16.90
2018-05-31T18:34:28.577Z,16.90
2018-05-31T18:36:55.373Z,16.90
2018-05-31T18:39:21.765Z,16.90
2018-05-31T18:41:48.183Z,16.90
2018-05-31T18:44:14.571Z,16.80
2018-05-31T18:46:44.364Z,17.10
2018-05-31T18:49:16.699Z,17.10
2018-05-31T18:51:46.622Z,17.00
2018-05-31T18:54:14.171Z,17.00
2018-05-31T18:56:44.244Z,17.00
2018-05-31T18:59:13.939Z,17.00
2018-05-31T19:01:43.992Z,17.30
2018-05-31T19:04:14.606Z,17.20
2018-05-31T19:06:44.373Z,17.20
2018-05-31T19:09:18.937Z,17.30
2018-05-31T19:11:45.571Z,17.30
2018-05-31T19:14:11.972Z,17.20
2018-05-31T19:16:38.413Z,17.40
2018-05-31T19:19:10.915Z,17.30
2018-05-31T19:21:37.279Z,17.30
2018-05-31T19:27:01.553Z,17.30
2018-05-31T19:29:27.939Z,17.30
2018-05-31T19:31:55.075Z,17.30
2018-05-31T19:34:23.693Z,17.20
2018-05-31T19:36:56.106Z,17.30
2018-05-31T19:39:22.563Z,17.30
2018-05-31T19:41:48.952Z,17.30
2018-05-31T19:44:21.395Z,17.30
2018-05-31T19:46:50.813Z,17.30
2018-05-31T19:49:21.665Z,17.20
2018-05-31T19:51:55.409Z,17.40
2018-05-31T19:54:25.099Z,17.40
2018-05-31T19:56:53.466Z,17.40
2018-05-31T19:59:28.790Z,17.30
2018-05-31T20:02:02.424Z,17.30
2018-05-31T20:04:31.725Z,17.30
2018-05-31T20:07:01.483Z,17.40
2018-05-31T20:09:32.652Z,17.40
2018-05-31T20:12:03.020Z,17.40
2018-05-31T20:14:33.093Z,17.40
2018-05-31T20:17:03.091Z,17.40
2018-05-31T20:19:34.668Z,17.30
2018-05-31T20:22:02.112Z,17.20
2018-05-31T20:24:30.993Z,17.30
2018-05-31T20:26:57.372Z,17.20
2018-05-31T20:29:27.969Z,17.30
2018-05-31T20:31:56.863Z,17.10
2018-05-31T20:37:39.560Z,17.00
2018-05-31T20:40:06.175Z,17.10
2018-05-31T20:42:32.556Z,17.00
2018-05-31T20:44:58.961Z,17.00
2018-05-31T20:47:25.359Z,17.00
2018-05-31T20:49:53.847Z,17.00
2018-05-31T20:52:20.986Z,17.00
2018-05-31T20:54:48.103Z,17.10
2018-05-31T20:57:14.493Z,17.10
2018-05-31T20:59:42.842Z,17.10
2018-05-31T21:02:13.320Z,17.10
2018-05-31T21:04:42.608Z,17.10
2018-05-31T21:07:11.984Z,17.10
2018-05-31T21:09:40.280Z,17.10
2018-05-31T21:12:07.976Z,17.10
2018-05-31T21:14:38.379Z,17.00
2018-05-31T21:17:10.552Z,17.00
2018-05-31T21:19:40.597Z,17.00
2018-05-31T21:22:11.448Z,17.00
2018-05-31T21:24:37.914Z,17.00
2018-05-31T21:27:05.035Z,17.00
2018-05-31T21:29:31.451Z,17.00
2018-05-31T21:31:57.835Z,17.10
2018-05-31T21:34:25.016Z,17.00
2018-05-31T21:36:51.520Z,17.00
2018-05-31T21:39:17.929Z,17.00
2018-05-31T21:41:44.313Z,17.00
2018-05-31T21:44:10.717Z,17.00
2018-05-31T21:46:37.128Z,16.90
2018-05-31T21:49:03.514Z,16.90
2018-05-31T21:51:29.916Z,16.90
2018-05-31T21:53:56.300Z,16.80
2018-05-31T21:56:22.720Z,16.80
2018-05-31T21:58:49.095Z,16.80
2018-05-31T22:01:15.529Z,16.80
2018-05-31T22:03:41.892Z,16.80
2018-05-31T22:06:08.281Z,16.80
2018-05-31T22:08:34.664Z,16.70
2018-05-31T22:11:01.808Z,16.70
2018-05-31T22:13:28.184Z,16.60
2018-05-31T22:15:54.585Z,16.70
2018-05-31T22:18:21.767Z,16.70
2018-05-31T22:20:48.159Z,16.60
2018-05-31T22:23:14.596Z,16.70
2018-05-31T22:25:40.983Z,16.60
2018-05-31T22:28:07.409Z,16.60
2018-05-31T22:30:33.792Z,16.60
2018-05-31T22:33:00.188Z,16.60
2018-05-31T22:35:26.566Z,16.60
2018-05-31T22:37:52.979Z,16.60
2018-05-31T22:40:20.141Z,16.50
2018-05-31T22:42:46.516Z,16.50
2018-05-31T22:45:12.929Z,16.50
2018-05-31T22:47:40.047Z,16.40
2018-05-31T22:50:06.447Z,16.40
2018-05-31T22:52:32.828Z,16.40
2018-05-31T22:54:59.967Z,16.30
2018-05-31T22:57:26.361Z,16.30
2018-05-31T22:59:52.757Z,16.30
2018-05-31T23:02:19.156Z,16.20
2018-05-31T23:04:45.556Z,16.30
2018-05-31T23:07:11.932Z,16.30
2018-05-31T23:09:38.336Z,16.20
2018-05-31T23:12:04.750Z,16.20
2018-05-31T23:14:31.141Z,16.20
2018-05-31T23:16:57.581Z,16.20
2018-05-31T23:19:23.952Z,16.20
2018-05-31T23:21:50.348Z,16.10
2018-05-31T23:24:16.733Z,16.10
2018-05-31T23:26:43.147Z,16.10
2018-05-31T23:29:10.273Z,16.10
2018-05-31T23:31:36.662Z,16.00
2018-05-31T23:34:03.036Z,16.00
2018-05-31T23:36:30.167Z,16.00
2018-05-31T23:38:56.544Z,15.90
2018-05-31T23:41:23.665Z,16.00
2018-05-31T23:43:50.063Z,16.00
2018-05-31T23:46:16.451Z,16.00
2018-05-31T23:48:43.584Z,16.00
2018-05-31T23:51:09.964Z,16.00
2018-05-31T23:53:36.369Z,16.00
2018-05-31T23:56:03.491Z,16.10
2018-05-31T23:58:29.896Z,16.00
